KOUN/OUN METAR and TAF weather

Enter ICAO airport designator
Station Type Date Time Source
KOUN METAR 2020/12/06 00:47 UTC NOAA

KOUN 060047Z 31007KT 10SM CLR 07/02 A3015


Station Type Date Time Source
KOUN Decoded METAR 2020/12/06 00:47 UTC NOAA

Norman / Max Westheimer, OK, United States (KOUN) 35-13N 097-27W 357M
Dec 05, 2020 - 07:47 PM EST / 2020.12.06 0047 UTC
Wind: from the NW (310 degrees) at 8 MPH (7 KT):0
Visibility: 10 mile(s):0
Sky conditions: clear
Temperature: 44 F (7 C)
Dew Point: 35 F (2 C)
Relative Humidity: 70%
Pressure (altimeter): 30.15 in. Hg (1020 hPa)
ob: KOUN 060047Z 31007KT 10SM CLR 07/02 A3015
cycle: 1

Station Type Date Time Source
KOUN TAF 2020/12/05 18:36 UTC NOAA

TAF KOUN 051733Z 0518/0618 33009KT P6SM SCT200

Example: see airport list